sensor_id;sensor_type;location;lat;lon;timestamp;pressure;altitude;pressure_sealevel;temperature
68440;BMP180;55421;51.600;5.718;2023-10-19T00:02:14;165088.80;;;11.26
68440;BMP180;55421;51.600;5.718;2023-10-19T00:04:45;165096.00;;;11.30
68440;BMP180;55421;51.600;5.718;2023-10-19T00:07:12;165100.80;;;11.30
68440;BMP180;55421;51.600;5.718;2023-10-19T00:09:43;165100.80;;;11.30
68440;BMP180;55421;51.600;5.718;2023-10-19T00:12:12;165100.80;;;11.30
68440;BMP180;55421;51.600;5.718;2023-10-19T00:14:41;165100.80;;;11.30
68440;BMP180;55421;51.600;5.718;2023-10-19T00:17:07;165108.00;;;11.30
68440;BMP180;55421;51.600;5.718;2023-10-19T00:19:37;165118.80;;;11.30
68440;BMP180;55421;51.600;5.718;2023-10-19T00:22:23;165125.59;;;11.30
68440;BMP180;55421;51.600;5.718;2023-10-19T00:24:50;165130.41;;;11.40
68440;BMP180;55421;51.600;5.718;2023-10-19T00:27:17;165135.00;;;11.38
68440;BMP180;55421;51.600;5.718;2023-10-19T00:29:45;165146.59;;;11.40
68440;BMP180;55421;51.600;5.718;2023-10-19T00:32:16;165153.41;;;11.40
68440;BMP180;55421;51.600;5.718;2023-10-19T00:34:44;165163.41;;;11.40
68440;BMP180;55421;51.600;5.718;2023-10-19T00:37:19;165180.20;;;11.46
68440;BMP180;55421;51.600;5.718;2023-10-19T00:39:53;165200.20;;;11.50
68440;BMP180;55421;51.600;5.718;2023-10-19T00:42:22;165223.00;;;11.58
68440;BMP180;55421;51.600;5.718;2023-10-19T00:44:52;165241.00;;;11.60
68440;BMP180;55421;51.600;5.718;2023-10-19T00:47:27;165254.59;;;11.60
68440;BMP180;55421;51.600;5.718;2023-10-19T00:50:00;165262.41;;;11.68
68440;BMP180;55421;51.600;5.718;2023-10-19T00:52:31;165272.41;;;11.70
68440;BMP180;55421;51.600;5.718;2023-10-19T00:54:58;165282.00;;;11.70
68440;BMP180;55421;51.600;5.718;2023-10-19T00:57:25;165289.20;;;11.70
68440;BMP180;55421;51.600;5.718;2023-10-19T01:00:03;165298.80;;;11.70
68440;BMP180;55421;51.600;5.718;2023-10-19T01:02:39;165301.20;;;11.74
68440;BMP180;55421;51.600;5.718;2023-10-19T01:05:12;165296.41;;;11.72
68440;BMP180;55421;51.600;5.718;2023-10-19T01:07:48;165286.80;;;11.70
68440;BMP180;55421;51.600;5.718;2023-10-19T01:10:23;165285.59;;;11.70
68440;BMP180;55421;51.600;5.718;2023-10-19T01:12:51;165290.41;;;11.70
68440;BMP180;55421;51.600;5.718;2023-10-19T01:15:21;165298.80;;;11.70
68440;BMP180;55421;51.600;5.718;2023-10-19T01:17:56;165308.80;;;11.80
68440;BMP180;55421;51.600;5.718;2023-10-19T01:20:27;165323.20;;;11.80
68440;BMP180;55421;51.600;5.718;2023-10-19T01:25:56;165364.41;;;11.90
68440;BMP180;55421;51.600;5.718;2023-10-19T01:28:37;165380.80;;;11.90
68440;BMP180;55421;51.600;5.718;2023-10-19T01:31:22;165406.20;;;12.00
68440;BMP180;55421;51.600;5.718;2023-10-19T01:34:00;165416.59;;;12.00
68440;BMP180;55421;51.600;5.718;2023-10-19T01:36:36;165434.59;;;12.02
68440;BMP180;55421;51.600;5.718;2023-10-19T01:39:08;165452.20;;;12.10
68440;BMP180;55421;51.600;5.718;2023-10-19T01:41:38;165465.41;;;12.10
68440;BMP180;55421;51.600;5.718;2023-10-19T01:44:07;165469.00;;;12.10
68440;BMP180;55421;51.600;5.718;2023-10-19T01:46:35;165478.20;;;12.16
68440;BMP180;55421;51.600;5.718;2023-10-19T01:49:03;165487.41;;;12.20
68440;BMP180;55421;51.600;5.718;2023-10-19T01:51:33;165492.20;;;12.20
68440;BMP180;55421;51.600;5.718;2023-10-19T01:54:06;165498.20;;;12.20
68440;BMP180;55421;51.600;5.718;2023-10-19T01:56:34;165515.20;;;12.20
68440;BMP180;55421;51.600;5.718;2023-10-19T01:59:04;165522.00;;;12.26
68440;BMP180;55421;51.600;5.718;2023-10-19T02:01:31;165532.00;;;12.30
68440;BMP180;55421;51.600;5.718;2023-10-19T02:04:01;165540.80;;;12.30
68440;BMP180;55421;51.600;5.718;2023-10-19T02:06:32;165545.59;;;12.30
68440;BMP180;55421;51.600;5.718;2023-10-19T02:09:12;165555.20;;;12.30
68440;BMP180;55421;51.600;5.718;2023-10-19T02:11:56;165567.20;;;12.40
68440;BMP180;55421;51.600;5.718;2023-10-19T02:14:25;165576.00;;;12.40
68440;BMP180;55421;51.600;5.718;2023-10-19T02:16:56;165589.20;;;12.40
68440;BMP180;55421;51.600;5.718;2023-10-19T02:19:26;165600.00;;;12.44
68440;BMP180;55421;51.600;5.718;2023-10-19T02:21:56;165606.00;;;12.50
68440;BMP180;55421;51.600;5.718;2023-10-19T02:24:23;165618.00;;;12.50
68440;BMP180;55421;51.600;5.718;2023-10-19T02:26:55;165629.20;;;12.50
68440;BMP180;55421;51.600;5.718;2023-10-19T02:29:23;165647.20;;;12.52
68440;BMP180;55421;51.600;5.718;2023-10-19T02:31:50;165665.00;;;12.60
68440;BMP180;55421;51.600;5.718;2023-10-19T02:34:16;165678.20;;;12.60
68440;BMP180;55421;51.600;5.718;2023-10-19T02:36:45;165691.41;;;12.60
68440;BMP180;55421;51.600;5.718;2023-10-19T02:39:13;165709.80;;;12.70
68440;BMP180;55421;51.600;5.718;2023-10-19T02:41:46;165732.59;;;12.70
68440;BMP180;55421;51.600;5.718;2023-10-19T02:44:18;165743.41;;;12.80
68440;BMP180;55421;51.600;5.718;2023-10-19T02:46:53;165756.41;;;12.80
68440;BMP180;55421;51.600;5.718;2023-10-19T02:49:27;165766.80;;;12.80
68440;BMP180;55421;51.600;5.718;2023-10-19T02:51:54;165778.80;;;12.86
68440;BMP180;55421;51.600;5.718;2023-10-19T02:54:24;165782.41;;;12.90
68440;BMP180;55421;51.600;5.718;2023-10-19T02:56:55;165802.00;;;12.90
68440;BMP180;55421;51.600;5.718;2023-10-19T02:59:26;165811.20;;;12.90
68440;BMP180;55421;51.600;5.718;2023-10-19T03:02:00;165820.41;;;12.94
68440;BMP180;55421;51.600;5.718;2023-10-19T03:04:27;165828.41;;;12.98
68440;BMP180;55421;51.600;5.718;2023-10-19T03:06:57;165830.80;;;13.00
68440;BMP180;55421;51.600;5.718;2023-10-19T03:09:23;165836.80;;;13.00
68440;BMP180;55421;51.600;5.718;2023-10-19T03:11:53;165838.00;;;13.00
68440;BMP180;55421;51.600;5.718;2023-10-19T03:14:23;165844.00;;;13.00
68440;BMP180;55421;51.600;5.718;2023-10-19T03:16:55;165846.80;;;13.00
68440;BMP180;55421;51.600;5.718;2023-10-19T03:19:23;165858.80;;;13.02
68440;BMP180;55421;51.600;5.718;2023-10-19T03:21:51;165870.80;;;13.10
68440;BMP180;55421;51.600;5.718;2023-10-19T03:24:19;165874.41;;;13.10
68440;BMP180;55421;51.600;5.718;2023-10-19T03:27:07;165886.41;;;13.10
68440;BMP180;55421;51.600;5.718;2023-10-19T03:29:43;165892.20;;;13.10
68440;BMP180;55421;51.600;5.718;2023-10-19T03:32:29;165909.00;;;13.14
68440;BMP180;55421;51.600;5.718;2023-10-19T03:35:01;165932.20;;;13.20
68440;BMP180;55421;51.600;5.718;2023-10-19T03:37:31;165951.41;;;13.20
68440;BMP180;55421;51.600;5.718;2023-10-19T03:39:58;165964.20;;;13.30
68440;BMP180;55421;51.600;5.718;2023-10-19T03:42:25;165976.59;;;13.30
68440;BMP180;55421;51.600;5.718;2023-10-19T03:44:55;165979.00;;;13.30
68440;BMP180;55421;51.600;5.718;2023-10-19T03:47:23;165995.41;;;13.36
68440;BMP180;55421;51.600;5.718;2023-10-19T03:50:04;166005.80;;;13.40
68440;BMP180;55421;51.600;5.718;2023-10-19T03:52:36;165993.00;;;13.32
68440;BMP180;55421;51.600;5.718;2023-10-19T03:55:07;165996.20;;;13.38
68440;BMP180;55421;51.600;5.718;2023-10-19T03:57:49;166000.20;;;13.40
68440;BMP180;55421;51.600;5.718;2023-10-19T04:00:22;165995.41;;;13.34
68440;BMP180;55421;51.600;5.718;2023-10-19T04:02:53;165993.00;;;13.30
68440;BMP180;55421;51.600;5.718;2023-10-19T04:05:22;165996.59;;;13.38
68440;BMP180;55421;51.600;5.718;2023-10-19T04:07:49;166001.00;;;13.36
68440;BMP180;55421;51.600;5.718;2023-10-19T04:10:22;166005.80;;;13.40
68440;BMP180;55421;51.600;5.718;2023-10-19T04:13:01;166005.00;;;13.40
68440;BMP180;55421;51.600;5.718;2023-10-19T04:15:30;166005.41;;;13.40
68440;BMP180;55421;51.600;5.718;2023-10-19T04:18:00;166001.80;;;13.40
68440;BMP180;55421;51.600;5.718;2023-10-19T04:20:26;166004.20;;;13.40
68440;BMP180;55421;51.600;5.718;2023-10-19T04:22:56;166009.00;;;13.40
68440;BMP180;55421;51.600;5.718;2023-10-19T04:25:32;166019.20;;;13.40
68440;BMP180;55421;51.600;5.718;2023-10-19T04:27:59;166028.41;;;13.40
68440;BMP180;55421;51.600;5.718;2023-10-19T04:30:27;166027.20;;;13.40
68440;BMP180;55421;51.600;5.718;2023-10-19T04:32:53;166022.80;;;13.40
68440;BMP180;55421;51.600;5.718;2023-10-19T04:35:23;166024.00;;;13.40
68440;BMP180;55421;51.600;5.718;2023-10-19T04:37:52;166027.59;;;13.40
68440;BMP180;55421;51.600;5.718;2023-10-19T04:40:20;166033.59;;;13.42
68440;BMP180;55421;51.600;5.718;2023-10-19T04:42:50;166030.00;;;13.40
68440;BMP180;55421;51.600;5.718;2023-10-19T04:45:17;166030.80;;;13.40
68440;BMP180;55421;51.600;5.718;2023-10-19T04:47:44;166030.41;;;13.40
68440;BMP180;55421;51.600;5.718;2023-10-19T04:50:12;166030.80;;;13.40
68440;BMP180;55421;51.600;5.718;2023-10-19T04:52:39;166036.00;;;13.48
68440;BMP180;55421;51.600;5.718;2023-10-19T04:55:06;166044.41;;;13.50
68440;BMP180;55421;51.600;5.718;2023-10-19T04:57:33;166058.41;;;13.50
68440;BMP180;55421;51.600;5.718;2023-10-19T04:59:59;166064.41;;;13.50
68440;BMP180;55421;51.600;5.718;2023-10-19T05:02:26;166072.41;;;13.50
68440;BMP180;55421;51.600;5.718;2023-10-19T05:04:53;166070.80;;;13.50
68440;BMP180;55421;51.600;5.718;2023-10-19T05:07:20;166059.59;;;13.50
68440;BMP180;55421;51.600;5.718;2023-10-19T05:09:47;166047.59;;;13.50
68440;BMP180;55421;51.600;5.718;2023-10-19T05:12:14;166032.41;;;13.40
68440;BMP180;55421;51.600;5.718;2023-10-19T05:14:42;166010.80;;;13.40
68440;BMP180;55421;51.600;5.718;2023-10-19T05:17:09;166010.20;;;13.40
68440;BMP180;55421;51.600;5.718;2023-10-19T05:19:38;166007.59;;;13.40
68440;BMP180;55421;51.600;5.718;2023-10-19T05:22:08;166009.00;;;13.40
68440;BMP180;55421;51.600;5.718;2023-10-19T05:24:36;166008.20;;;13.40
68440;BMP180;55421;51.600;5.718;2023-10-19T05:27:03;166008.20;;;13.40
68440;BMP180;55421;51.600;5.718;2023-10-19T05:29:32;165997.80;;;13.36
68440;BMP180;55421;51.600;5.718;2023-10-19T05:32:02;166003.80;;;13.40
68440;BMP180;55421;51.600;5.718;2023-10-19T05:34:29;166005.00;;;13.40
68440;BMP180;55421;51.600;5.718;2023-10-19T05:36:58;166010.80;;;13.40
68440;BMP180;55421;51.600;5.718;2023-10-19T05:39:28;166010.80;;;13.40
68440;BMP180;55421;51.600;5.718;2023-10-19T05:41:57;166010.80;;;13.40
68440;BMP180;55421;51.600;5.718;2023-10-19T05:44:29;166012.00;;;13.40
68440;BMP180;55421;51.600;5.718;2023-10-19T05:46:57;166010.80;;;13.40
68440;BMP180;55421;51.600;5.718;2023-10-19T05:49:24;166011.41;;;13.40
68440;BMP180;55421;51.600;5.718;2023-10-19T05:51:51;166010.80;;;13.40
68440;BMP180;55421;51.600;5.718;2023-10-19T05:54:17;166010.80;;;13.40
68440;BMP180;55421;51.600;5.718;2023-10-19T05:56:44;166010.80;;;13.40
68440;BMP180;55421;51.600;5.718;2023-10-19T05:59:12;166009.59;;;13.40
68440;BMP180;55421;51.600;5.718;2023-10-19T06:01:39;166010.80;;;13.40
68440;BMP180;55421;51.600;5.718;2023-10-19T06:04:07;166010.80;;;13.40
68440;BMP180;55421;51.600;5.718;2023-10-19T06:06:34;166012.59;;;13.40
68440;BMP180;55421;51.600;5.718;2023-10-19T06:09:02;166016.20;;;13.40
68440;BMP180;55421;51.600;5.718;2023-10-19T06:11:30;166014.41;;;13.40
68440;BMP180;55421;51.600;5.718;2023-10-19T06:14:00;166011.41;;;13.40
68440;BMP180;55421;51.600;5.718;2023-10-19T06:16:27;166012.00;;;13.40
68440;BMP180;55421;51.600;5.718;2023-10-19T06:18:54;166013.80;;;13.40
68440;BMP180;55421;51.600;5.718;2023-10-19T06:21:21;166017.41;;;13.40
68440;BMP180;55421;51.600;5.718;2023-10-19T06:23:49;166017.41;;;13.40
68440;BMP180;55421;51.600;5.718;2023-10-19T06:26:16;166022.80;;;13.40
68440;BMP180;55421;51.600;5.718;2023-10-19T06:28:43;166014.41;;;13.40
68440;BMP180;55421;51.600;5.718;2023-10-19T06:31:10;166020.41;;;13.40
68440;BMP180;55421;51.600;5.718;2023-10-19T06:33:36;166029.59;;;13.40
68440;BMP180;55421;51.600;5.718;2023-10-19T06:36:07;166030.41;;;13.40
68440;BMP180;55421;51.600;5.718;2023-10-19T06:38:34;166035.20;;;13.46
68440;BMP180;55421;51.600;5.718;2023-10-19T06:41:00;166045.59;;;13.50
68440;BMP180;55421;51.600;5.718;2023-10-19T06:43:29;166056.00;;;13.50
68440;BMP180;55421;51.600;5.718;2023-10-19T06:45:56;166059.20;;;13.50
68440;BMP180;55421;51.600;5.718;2023-10-19T06:48:23;166066.00;;;13.50
68440;BMP180;55421;51.600;5.718;2023-10-19T06:50:50;166069.20;;;13.50
68440;BMP180;55421;51.600;5.718;2023-10-19T06:53:16;166080.80;;;13.54
68440;BMP180;55421;51.600;5.718;2023-10-19T06:55:43;166089.20;;;13.60
68440;BMP180;55421;51.600;5.718;2023-10-19T06:58:09;166101.20;;;13.60
68440;BMP180;55421;51.600;5.718;2023-10-19T07:00:37;166116.80;;;13.60
68440;BMP180;55421;51.600;5.718;2023-10-19T07:03:09;166124.41;;;13.68
68440;BMP180;55421;51.600;5.718;2023-10-19T07:05:37;166141.20;;;13.70
68440;BMP180;55421;51.600;5.718;2023-10-19T07:08:05;166146.00;;;13.70
68440;BMP180;55421;51.600;5.718;2023-10-19T07:10:33;166156.20;;;13.70
68440;BMP180;55421;51.600;5.718;2023-10-19T07:13:01;166171.80;;;13.78
68440;BMP180;55421;51.600;5.718;2023-10-19T07:15:28;166185.41;;;13.80
68440;BMP180;55421;51.600;5.718;2023-10-19T07:17:56;166207.41;;;13.80
68440;BMP180;55421;51.600;5.718;2023-10-19T07:20:23;166223.80;;;13.90
68440;BMP180;55421;51.600;5.718;2023-10-19T07:22:57;166248.20;;;13.90
68440;BMP180;55421;51.600;5.718;2023-10-19T07:25:30;166255.41;;;13.92
68440;BMP180;55421;51.600;5.718;2023-10-19T07:27:57;166260.00;;;13.98
68440;BMP180;55421;51.600;5.718;2023-10-19T07:30:26;166273.59;;;14.00
68440;BMP180;55421;51.600;5.718;2023-10-19T07:32:53;166293.20;;;14.00
68440;BMP180;55421;51.600;5.718;2023-10-19T07:35:28;166308.80;;;14.10
68440;BMP180;55421;51.600;5.718;2023-10-19T07:37:57;166316.80;;;14.10
68440;BMP180;55421;51.600;5.718;2023-10-19T07:40:23;166324.41;;;14.10
68440;BMP180;55421;51.600;5.718;2023-10-19T07:42:52;166328.00;;;14.10
68440;BMP180;55421;51.600;5.718;2023-10-19T07:45:21;166327.20;;;14.10
68440;BMP180;55421;51.600;5.718;2023-10-19T07:47:48;166330.41;;;14.10
68440;BMP180;55421;51.600;5.718;2023-10-19T07:50:14;166336.00;;;14.10
68440;BMP180;55421;51.600;5.718;2023-10-19T07:52:47;166335.20;;;14.10
68440;BMP180;55421;51.600;5.718;2023-10-19T07:55:17;166336.00;;;14.14
68440;BMP180;55421;51.600;5.718;2023-10-19T07:57:44;166342.41;;;14.20
68440;BMP180;55421;51.600;5.718;2023-10-19T08:00:12;166347.20;;;14.20
68440;BMP180;55421;51.600;5.718;2023-10-19T08:02:41;166360.80;;;14.20
68440;BMP180;55421;51.600;5.718;2023-10-19T08:05:08;166368.00;;;14.20
68440;BMP180;55421;51.600;5.718;2023-10-19T08:07:39;166380.80;;;14.20
68440;BMP180;55421;51.600;5.718;2023-10-19T08:10:19;166399.20;;;14.30
68440;BMP180;55421;51.600;5.718;2023-10-19T08:12:48;166423.80;;;14.38
68440;BMP180;55421;51.600;5.718;2023-10-19T08:15:17;166452.59;;;14.40
68440;BMP180;55421;51.600;5.718;2023-10-19T08:17:46;166477.41;;;14.50
68440;BMP180;55421;51.600;5.718;2023-10-19T08:20:14;166502.59;;;14.50
68440;BMP180;55421;51.600;5.718;2023-10-19T08:22:54;166538.00;;;14.60
68440;BMP180;55421;51.600;5.718;2023-10-19T08:25:35;166563.59;;;14.68
68440;BMP180;55421;51.600;5.718;2023-10-19T08:28:01;166584.00;;;14.70
68440;BMP180;55421;51.600;5.718;2023-10-19T08:30:28;166602.00;;;14.74
68440;BMP180;55421;51.600;5.718;2023-10-19T08:32:55;166617.59;;;14.80
68440;BMP180;55421;51.600;5.718;2023-10-19T08:35:23;166633.20;;;14.80
68440;BMP180;55421;51.600;5.718;2023-10-19T08:37:54;166623.59;;;14.80
68440;BMP180;55421;51.600;5.718;2023-10-19T08:40:25;166622.41;;;14.80
68440;BMP180;55421;51.600;5.718;2023-10-19T08:42:53;166624.80;;;14.80
68440;BMP180;55421;51.600;5.718;2023-10-19T08:45:20;166635.59;;;14.80
68440;BMP180;55421;51.600;5.718;2023-10-19T08:47:58;166652.59;;;14.90
68440;BMP180;55421;51.600;5.718;2023-10-19T08:50:30;166681.41;;;14.98
68440;BMP180;55421;51.600;5.718;2023-10-19T08:53:01;166726.20;;;15.02
68440;BMP180;55421;51.600;5.718;2023-10-19T08:55:29;166731.80;;;15.10
68440;BMP180;55421;51.600;5.718;2023-10-19T08:57:57;166755.59;;;15.10
68440;BMP180;55421;51.600;5.718;2023-10-19T09:00:27;166797.20;;;15.20
68440;BMP180;55421;51.600;5.718;2023-10-19T09:02:54;166836.00;;;15.30
68440;BMP180;55421;51.600;5.718;2023-10-19T09:05:22;166887.20;;;15.40
68440;BMP180;55421;51.600;5.718;2023-10-19T09:07:49;166947.00;;;15.56
68440;BMP180;55421;51.600;5.718;2023-10-19T09:10:27;167019.00;;;15.70
68440;BMP180;55421;51.600;5.718;2023-10-19T09:13:07;167074.41;;;15.90
68440;BMP180;55421;51.600;5.718;2023-10-19T09:15:40;167133.59;;;16.00
68440;BMP180;55421;51.600;5.718;2023-10-19T09:18:19;167171.41;;;16.10
68440;BMP180;55421;51.600;5.718;2023-10-19T09:20:48;167217.41;;;16.20
68440;BMP180;55421;51.600;5.718;2023-10-19T09:23:24;167246.59;;;16.22
68440;BMP180;55421;51.600;5.718;2023-10-19T09:25:59;167272.59;;;16.30
68440;BMP180;55421;51.600;5.718;2023-10-19T09:28:30;167279.80;;;16.30
68440;BMP180;55421;51.600;5.718;2023-10-19T09:31:00;167294.80;;;16.40
68440;BMP180;55421;51.600;5.718;2023-10-19T09:33:27;167315.20;;;16.40
68440;BMP180;55421;51.600;5.718;2023-10-19T09:35:55;167347.59;;;16.50
68440;BMP180;55421;51.600;5.718;2023-10-19T09:38:25;167358.00;;;16.50
68440;BMP180;55421;51.600;5.718;2023-10-19T09:40:55;167387.59;;;16.60
68440;BMP180;55421;51.600;5.718;2023-10-19T09:43:37;167397.20;;;16.60
68440;BMP180;55421;51.600;5.718;2023-10-19T09:46:08;167430.20;;;16.70
68440;BMP180;55421;51.600;5.718;2023-10-19T09:48:45;167453.00;;;16.70
68440;BMP180;55421;51.600;5.718;2023-10-19T09:51:15;167437.41;;;16.70
68440;BMP180;55421;51.600;5.718;2023-10-19T09:53:53;167408.20;;;16.60
68440;BMP180;55421;51.600;5.718;2023-10-19T09:56:35;167391.20;;;16.60
68440;BMP180;55421;51.600;5.718;2023-10-19T09:59:06;167373.20;;;16.50
68440;BMP180;55421;51.600;5.718;2023-10-19T10:02:08;167366.00;;;16.50
68440;BMP180;55421;51.600;5.718;2023-10-19T10:04:39;167372.00;;;16.50
68440;BMP180;55421;51.600;5.718;2023-10-19T10:07:09;167364.00;;;16.50
68440;BMP180;55421;51.600;5.718;2023-10-19T10:09:40;167367.20;;;16.50
68440;BMP180;55421;51.600;5.718;2023-10-19T10:12:21;167362.41;;;16.50
68440;BMP180;55421;51.600;5.718;2023-10-19T10:17:28;167372.00;;;16.50
68440;BMP180;55421;51.600;5.718;2023-10-19T10:23:18;167391.20;;;16.60
68440;BMP180;55421;51.600;5.718;2023-10-19T10:25:49;167402.00;;;16.60
68440;BMP180;55421;51.600;5.718;2023-10-19T10:28:16;167412.20;;;16.60
68440;BMP180;55421;51.600;5.718;2023-10-19T10:31:13;167423.00;;;16.62
68440;BMP180;55421;51.600;5.718;2023-10-19T10:33:45;167438.59;;;16.70
68440;BMP180;55421;51.600;5.718;2023-10-19T10:36:15;167454.20;;;16.70
68440;BMP180;55421;51.600;5.718;2023-10-19T10:38:45;167462.20;;;16.72
68440;BMP180;55421;51.600;5.718;2023-10-19T10:41:12;167479.80;;;16.80
68440;BMP180;55421;51.600;5.718;2023-10-19T10:44:03;167497.80;;;16.80
68440;BMP180;55421;51.600;5.718;2023-10-19T10:46:31;167535.59;;;16.90
68440;BMP180;55421;51.600;5.718;2023-10-19T10:48:58;167576.41;;;17.00
68440;BMP180;55421;51.600;5.718;2023-10-19T10:51:28;167612.41;;;17.10
68440;BMP180;55421;51.600;5.718;2023-10-19T10:53:58;167642.00;;;17.20
68440;BMP180;55421;51.600;5.718;2023-10-19T10:56:25;167676.59;;;17.20
68440;BMP180;55421;51.600;5.718;2023-10-19T10:58:51;167720.59;;;17.34
68440;BMP180;55421;51.600;5.718;2023-10-19T11:01:31;167750.59;;;17.40
68440;BMP180;55421;51.600;5.718;2023-10-19T11:04:11;167762.59;;;17.40
68440;BMP180;55421;51.600;5.718;2023-10-19T11:06:53;167755.41;;;17.40
68440;BMP180;55421;51.600;5.718;2023-10-19T11:09:21;167765.00;;;17.40
68440;BMP180;55421;51.600;5.718;2023-10-19T11:11:48;167760.20;;;17.40
68440;BMP180;55421;51.600;5.718;2023-10-19T11:14:21;167755.41;;;17.40
68440;BMP180;55421;51.600;5.718;2023-10-19T11:16:51;167745.80;;;17.40
68440;BMP180;55421;51.600;5.718;2023-10-19T11:19:17;167733.80;;;17.40
68440;BMP180;55421;51.600;5.718;2023-10-19T11:21:54;167729.41;;;17.36
68440;BMP180;55421;51.600;5.718;2023-10-19T11:24:26;167710.59;;;17.30
68440;BMP180;55421;51.600;5.718;2023-10-19T11:26:53;167719.41;;;17.30
68440;BMP180;55421;51.600;5.718;2023-10-19T11:29:20;167705.00;;;17.30
68440;BMP180;55421;51.600;5.718;2023-10-19T11:32:00;167687.41;;;17.30
68440;BMP180;55421;51.600;5.718;2023-10-19T11:34:28;167663.00;;;17.20
68440;BMP180;55421;51.600;5.718;2023-10-19T11:36:56;167647.59;;;17.20
68440;BMP180;55421;51.600;5.718;2023-10-19T11:39:26;167644.41;;;17.20
68440;BMP180;55421;51.600;5.718;2023-10-19T11:41:53;167651.20;;;17.20
68440;BMP180;55421;51.600;5.718;2023-10-19T11:44:19;167663.59;;;17.20
68440;BMP180;55421;51.600;5.718;2023-10-19T11:46:46;167673.00;;;17.20
68440;BMP180;55421;51.600;5.718;2023-10-19T11:49:12;167675.41;;;17.22
68440;BMP180;55421;51.600;5.718;2023-10-19T11:51:39;167665.41;;;17.20
68440;BMP180;55421;51.600;5.718;2023-10-19T11:54:05;167663.41;;;17.20
68440;BMP180;55421;51.600;5.718;2023-10-19T11:56:32;167661.20;;;17.20
68440;BMP180;55421;51.600;5.718;2023-10-19T11:58:58;167663.00;;;17.20
68440;BMP180;55421;51.600;5.718;2023-10-19T12:01:25;167658.80;;;17.20
68440;BMP180;55421;51.600;5.718;2023-10-19T12:03:53;167649.59;;;17.20
68440;BMP180;55421;51.600;5.718;2023-10-19T12:06:19;167638.00;;;17.20
68440;BMP180;55421;51.600;5.718;2023-10-19T12:08:46;167634.80;;;17.10
68440;BMP180;55421;51.600;5.718;2023-10-19T12:11:13;167623.59;;;17.10
68440;BMP180;55421;51.600;5.718;2023-10-19T12:13:43;167607.20;;;17.10
68440;BMP180;55421;51.600;5.718;2023-10-19T12:16:11;167596.41;;;17.10
68440;BMP180;55421;51.600;5.718;2023-10-19T12:18:47;167581.20;;;17.00
68440;BMP180;55421;51.600;5.718;2023-10-19T12:21:14;167563.20;;;17.00
68440;BMP180;55421;51.600;5.718;2023-10-19T12:23:43;167551.20;;;16.90
68440;BMP180;55421;51.600;5.718;2023-10-19T12:26:10;167538.41;;;16.90
68440;BMP180;55421;51.600;5.718;2023-10-19T12:28:38;167523.80;;;16.90
68440;BMP180;55421;51.600;5.718;2023-10-19T12:31:05;167513.00;;;16.90
68440;BMP180;55421;51.600;5.718;2023-10-19T12:33:31;167506.20;;;16.80
68440;BMP180;55421;51.600;5.718;2023-10-19T12:35:58;167496.59;;;16.80
68440;BMP180;55421;51.600;5.718;2023-10-19T12:38:25;167493.00;;;16.80
68440;BMP180;55421;51.600;5.718;2023-10-19T12:40:52;167487.00;;;16.80
68440;BMP180;55421;51.600;5.718;2023-10-19T12:43:19;167481.00;;;16.80
68440;BMP180;55421;51.600;5.718;2023-10-19T12:45:45;167476.20;;;16.80
68440;BMP180;55421;51.600;5.718;2023-10-19T12:48:17;167471.41;;;16.72
68440;BMP180;55421;51.600;5.718;2023-10-19T12:50:43;167465.41;;;16.70
68440;BMP180;55421;51.600;5.718;2023-10-19T12:53:10;167465.41;;;16.70
68440;BMP180;55421;51.600;5.718;2023-10-19T12:55:37;167457.80;;;16.70
68440;BMP180;55421;51.600;5.718;2023-10-19T12:58:06;167453.00;;;16.70
68440;BMP180;55421;51.600;5.718;2023-10-19T13:00:36;167454.20;;;16.70
68440;BMP180;55421;51.600;5.718;2023-10-19T13:03:07;167453.00;;;16.70
68440;BMP180;55421;51.600;5.718;2023-10-19T13:05:35;167448.59;;;16.70
68440;BMP180;55421;51.600;5.718;2023-10-19T13:08:11;167443.80;;;16.70
68440;BMP180;55421;51.600;5.718;2023-10-19T13:10:46;167443.80;;;16.70
68440;BMP180;55421;51.600;5.718;2023-10-19T13:13:14;167454.20;;;16.70
68440;BMP180;55421;51.600;5.718;2023-10-19T13:15:43;167454.20;;;16.70
68440;BMP180;55421;51.600;5.718;2023-10-19T13:18:12;167475.00;;;16.78
68440;BMP180;55421;51.600;5.718;2023-10-19T13:20:54;167478.59;;;16.80
68440;BMP180;55421;51.600;5.718;2023-10-19T13:23:20;167484.59;;;16.80
68440;BMP180;55421;51.600;5.718;2023-10-19T13:25:50;167495.41;;;16.80
68440;BMP180;55421;51.600;5.718;2023-10-19T13:28:18;167502.59;;;16.80
68440;BMP180;55421;51.600;5.718;2023-10-19T13:30:49;167512.20;;;16.86
68440;BMP180;55421;51.600;5.718;2023-10-19T13:33:17;167514.20;;;16.90
68440;BMP180;55421;51.600;5.718;2023-10-19T13:35:45;167513.00;;;16.90
68440;BMP180;55421;51.600;5.718;2023-10-19T13:38:12;167518.20;;;16.90
68440;BMP180;55421;51.600;5.718;2023-10-19T13:40:42;167513.00;;;16.90
68440;BMP180;55421;51.600;5.718;2023-10-19T13:43:09;167503.80;;;16.80
68440;BMP180;55421;51.600;5.718;2023-10-19T13:45:41;167491.80;;;16.80
68440;BMP180;55421;51.600;5.718;2023-10-19T13:48:11;167478.59;;;16.80
68440;BMP180;55421;51.600;5.718;2023-10-19T13:50:47;167465.41;;;16.74
68440;BMP180;55421;51.600;5.718;2023-10-19T13:53:16;167454.20;;;16.70
68440;BMP180;55421;51.600;5.718;2023-10-19T13:55:43;167439.00;;;16.70
68440;BMP180;55421;51.600;5.718;2023-10-19T13:58:10;167429.41;;;16.70
68440;BMP180;55421;51.600;5.718;2023-10-19T14:00:37;167412.20;;;16.60
68440;BMP180;55421;51.600;5.718;2023-10-19T14:03:08;167398.41;;;16.60
68440;BMP180;55421;51.600;5.718;2023-10-19T14:05:44;167378.00;;;16.58
68440;BMP180;55421;51.600;5.718;2023-10-19T14:08:16;167366.80;;;16.50
68440;BMP180;55421;51.600;5.718;2023-10-19T14:10:43;167359.20;;;16.50
68440;BMP180;55421;51.600;5.718;2023-10-19T14:13:10;167353.20;;;16.50
68440;BMP180;55421;51.600;5.718;2023-10-19T14:15:41;167352.41;;;16.50
68440;BMP180;55421;51.600;5.718;2023-10-19T14:18:09;167360.80;;;16.50
68440;BMP180;55421;51.600;5.718;2023-10-19T14:20:37;167363.59;;;16.50
68440;BMP180;55421;51.600;5.718;2023-10-19T14:23:06;167372.00;;;16.50